Aérodrome :
LOGIN :

S'inscrire | Disclaimer

   EN    FR    IT 

 










Légende :    VFR   VFR Marginal   IFR   IFR Intensif   IFR Très Intensif
Visi : 
Plafond : 
>= 8 km
>= 3000ft
5 à 8 km
1000 à 3000 ft
1500m à 5 km
500 à 1000 ft
800 à 1500m
200 à 500 ft
< 800m
< 200 ft
Symboles :   Orages  Brouillard  Fortes neiges  Fortes précipitations  Vent > 20 kt
SIGMETs :   Divers  Orages  Givrage  Turbulence  Onde Orograph.  Cendres Volcan.







- Altitude de l'aérodrome : 100 ft


EBDT - Schaffen

DERNIER METAR :
  • 301025Z 19009KT 9999 FEW030 SCT090 18/08 Q1025 BLU BLU

METARs EXPIRÉS :
  • 300955Z 20009KT 9999 FEW070 BKN090 17/09 Q1025 BLU BLU
  • 300925Z 19008KT 9999 FEW070 BKN090 16/08 Q1025 BLU BLU
  • 300855Z 19007KT 9999 FEW070 BKN090 15/09 Q1025 BLU BLU
  • 300825Z 19006KT 9999 BKN090 14/08 Q1025 BLU BLU
  • 300755Z 20005KT 9999 BKN090 13/08 Q1025 BLU BLU

TAF TAF EBDT
Valide du 30 à 10h jusqu'au 30 à 19h UTC


300841Z 3010/3019 20008KT 9999 FEW030 SCT080
Pas de NOTAMs connus pour ce terrain.



MET'MAP, la Météo Aéronautique d'un coup d'oeil ! - Copyright ORBIFLY Décembre 2007 - Disclaimer

ORBIFLY MET'MAP TEAM :

Programmation & Développement : Alexandra Zaïnal
Conception & Développement : Baudouin d'Aumeries
Co-Programmation & Développement : Marc-Olivier Méhu
Soutien technique & logistique : Manuel Goepfert

Contact : metmap@orbifly.com




SOURCES & CREDITS :

   NOAA